KAOO/AOO METAR and TAF weather

Enter ICAO airport designator
Station Type Date Time Source
KAOO METAR 2019/06/26 15:53 UTC NOAA

KAOO 261553Z AUTO 23009KT 10SM SCT055 27/17 A3012 RMK AO2 SLP190 T02670167


Station Type Date Time Source
KAOO Decoded METAR 2019/06/26 15:53 UTC NOAA

ALTOONA-BLAIR COUNTY AIRPORT, PA, United States (KAOO) 40-18N 78-19W 455M
Jun 26, 2019 - 11:53 AM EDT / 2019.06.26 1553 UTC
Wind: from the SW (230 degrees) at 10 MPH (9 KT):0
Visibility: 10 mile(s):0
Sky conditions: partly cloudy
Temperature: 80.1 F (26.7 C)
Dew Point: 62.1 F (16.7 C)
Relative Humidity: 54%
Pressure (altimeter): 30.12 in. Hg (1019 hPa)
ob: KAOO 261553Z AUTO 23009KT 10SM SCT055 27/17 A3012 RMK AO2 SLP190 T02670167
cycle: 16

Station Type Date Time Source
KAOO TAF 2019/06/26 16:42 UTC NOAA

TAF
AMD KAOO 261538Z 2616/2712 26010G16KT P6SM SCT050
FM270000 28004KT P6SM SCT050

Example: see airport list